KHVS/HVS METAR and TAF weather

Enter ICAO airport designator
Station Type Date Time Source
KHVS METAR 2020/08/06 00:15 UTC NOAA

KHVS 060015Z AUTO 00000KT 10SM VCTS CLR 27/24 A3004 RMK AO2 LTG DSNT W


Station Type Date Time Source
KHVS Decoded METAR 2020/08/06 00:15 UTC NOAA

Station name not available
Aug 05, 2020 - 08:15 PM EDT / 2020.08.06 0015 UTC
Wind: Calm:0
Visibility: 10 mile(s):0
Sky conditions: clear
Weather: thunder in the vicinity; Lightning observed
Temperature: 80 F (27 C)
Dew Point: 75 F (24 C)
Relative Humidity: 83%
Pressure (altimeter): 30.04 in. Hg (1017 hPa)
ob: KHVS 060015Z AUTO 00000KT 10SM VCTS CLR 27/24 A3004 RMK AO2 LTG DSNT W
cycle: 0

Station Type Date Time Source
KHVS TAF UTC NOAA

Error!

Example: see airport list